ANZ6145 NTAA-PHNL
Flight info
| Callsign | ANZ6145 |
|---|---|
| Flight time | 5h 7m |
| Altitude | 36000 |
| Route | TIAMA B595 KOA V20 HOKLA JULLE5 |
| Aircraft | B77W/H-SDE1E2E3FGHIJ2J3J4J5M1RWXY/LB1D1 |
Departure
| Time | 2026-05-01 07:47 |
|---|---|
| Airport | Fa'a'ā International Airport (NTAA) |
Arrival
| Time | 2026-05-01 12:54 |
|---|---|
| Airport | Daniel K. Inouye International Airport (PHNL) |
| Time | Latitude | Longitude | Altitude | Speed | Heading |
|---|---|---|---|---|---|
| 2026-05-01 07:23 | -17.55850 | -149.61017 | 37 ft | 0 kts | 145° |
| 2026-05-01 07:38 | -17.55842 | -149.61023 | 36 ft | 2 kts | 138° |
| 2026-05-01 07:39 | -17.55832 | -149.61034 | 36 ft | 2 kts | 122° |
| 2026-05-01 07:39 | -17.55825 | -149.61047 | 36 ft | 2 kts | 110° |
| 2026-05-01 07:39 | -17.55821 | -149.61079 | 35 ft | 2 kts | 84° |
| 2026-05-01 07:40 | -17.55824 | -149.61095 | 35 ft | 2 kts | 71° |
| 2026-05-01 07:40 | -17.55830 | -149.61108 | 35 ft | 2 kts | 59° |
| 2026-05-01 07:40 | -17.55837 | -149.61119 | 35 ft | 0 kts | 51° |
| 2026-05-01 07:43 | -17.55818 | -149.61095 | 35 ft | 11 kts | 48° |
| 2026-05-01 07:43 | -17.55748 | -149.61081 | 36 ft | 10 kts | 333° |
| 2026-05-01 07:43 | -17.55723 | -149.61235 | 31 ft | 29 kts | 232° |
| 2026-05-01 07:44 | -17.55955 | -149.61577 | 24 ft | 27 kts | 234° |
| 2026-05-01 07:44 | -17.56115 | -149.61812 | 24 ft | 16 kts | 238° |
| 2026-05-01 07:45 | -17.56173 | -149.61903 | 24 ft | 13 kts | 235° |
| 2026-05-01 07:45 | -17.56199 | -149.61971 | 24 ft | 2 kts | 243° |
| 2026-05-01 07:45 | -17.56217 | -149.61954 | 24 ft | 0 kts | 56° |
| 2026-05-01 07:45 | -17.56217 | -149.61952 | 24 ft | 0 kts | 54° |
| 2026-05-01 07:46 | -17.56206 | -149.61937 | 24 ft | 10 kts | 54° |
| 2026-05-01 07:46 | -17.56070 | -149.61742 | 23 ft | 68 kts | 54° |
| 2026-05-01 07:46 | -17.54984 | -149.60170 | 154 ft | 181 kts | 53° |
| 2026-05-01 07:47 | -17.54090 | -149.59140 | 542 ft | 203 kts | 33° |
| 2026-05-01 07:47 | -17.52805 | -149.58527 | 1540 ft | 201 kts | 24° |
| 2026-05-01 07:47 | -17.51749 | -149.58035 | 3120 ft | 156 kts | 33° |
| 2026-05-01 07:47 | -17.50951 | -149.57288 | 3517 ft | 168 kts | 61° |
| 2026-05-01 07:48 | -17.48927 | -149.55718 | 4021 ft | 201 kts | 6° |
| 2026-05-01 07:48 | -17.47461 | -149.55864 | 4330 ft | 220 kts | 354° |
| 2026-05-01 07:48 | -17.45874 | -149.56133 | 4670 ft | 239 kts | 353° |
| 2026-05-01 07:49 | -17.44177 | -149.56424 | 5122 ft | 255 kts | 354° |
| 2026-05-01 07:49 | -17.40511 | -149.57056 | 6333 ft | 275 kts | 353° |
| 2026-05-01 07:49 | -17.38609 | -149.57385 | 7098 ft | 278 kts | 353° |
| 2026-05-01 07:50 | -17.36689 | -149.57718 | 7840 ft | 281 kts | 353° |
| 2026-05-01 07:50 | -17.32788 | -149.58392 | 9274 ft | 287 kts | 353° |
| 2026-05-01 07:50 | -17.30802 | -149.58737 | 9963 ft | 291 kts | 353° |
| 2026-05-01 07:51 | -17.28795 | -149.59084 | 10505 ft | 302 kts | 352° |
| 2026-05-01 07:51 | -17.26656 | -149.59451 | 10873 ft | 319 kts | 352° |
| 2026-05-01 07:51 | -17.24393 | -149.59842 | 11368 ft | 332 kts | 352° |
| 2026-05-01 07:52 | -17.19796 | -149.60635 | 12878 ft | 339 kts | 352° |
| 2026-05-01 07:52 | -17.17448 | -149.61041 | 13629 ft | 343 kts | 352° |
| 2026-05-01 07:52 | -17.15094 | -149.61449 | 14391 ft | 347 kts | 352° |
| 2026-05-01 07:53 | -17.10296 | -149.62277 | 16008 ft | 354 kts | 352° |
| 2026-05-01 07:53 | -17.07854 | -149.62700 | 16773 ft | 358 kts | 352° |
| 2026-05-01 07:53 | -17.05377 | -149.63127 | 17517 ft | 362 kts | 352° |
| 2026-05-01 07:53 | -17.02895 | -149.63556 | 18217 ft | 367 kts | 352° |
| 2026-05-01 07:54 | -16.97775 | -149.64438 | 19611 ft | 377 kts | 352° |
| 2026-05-01 07:55 | -16.89864 | -149.65802 | 21591 ft | 391 kts | 352° |
| 2026-05-01 07:55 | -16.84445 | -149.66736 | 22863 ft | 399 kts | 352° |
| 2026-05-01 07:56 | -16.76082 | -149.68176 | 24714 ft | 411 kts | 352° |
| 2026-05-01 07:56 | -16.70415 | -149.69151 | 25876 ft | 418 kts | 351° |
| 2026-05-01 07:57 | -16.67511 | -149.69652 | 26443 ft | 422 kts | 352° |
| 2026-05-01 07:57 | -16.61681 | -149.70654 | 27534 ft | 429 kts | 351° |
| 2026-05-01 07:58 | -16.55743 | -149.71675 | 28613 ft | 436 kts | 351° |
| 2026-05-01 07:58 | -16.49688 | -149.72714 | 29649 ft | 443 kts | 351° |
| 2026-05-01 07:59 | -16.43507 | -149.73776 | 30426 ft | 455 kts | 350° |
| 2026-05-01 07:59 | -16.37212 | -149.74857 | 31340 ft | 462 kts | 350° |
| 2026-05-01 08:00 | -16.24274 | -149.77075 | 32847 ft | 479 kts | 350° |
| 2026-05-01 08:01 | -16.14290 | -149.78784 | 34059 ft | 488 kts | 350° |
| 2026-05-01 08:01 | -16.10903 | -149.79364 | 34436 ft | 491 kts | 349° |
| 2026-05-01 08:01 | -16.07491 | -149.79948 | 34766 ft | 495 kts | 349° |
| 2026-05-01 08:02 | -16.00487 | -149.81145 | 35539 ft | 500 kts | 349° |
| 2026-05-01 08:02 | -15.96965 | -149.81747 | 35877 ft | 503 kts | 349° |
| 2026-05-01 08:03 | -15.89850 | -149.82962 | 35970 ft | 508 kts | 349° |
| 2026-05-01 08:03 | -15.79401 | -149.84746 | 35970 ft | 506 kts | 349° |
| 2026-05-01 08:04 | -15.65414 | -149.87128 | 35966 ft | 506 kts | 349° |
| 2026-05-01 08:05 | -15.54934 | -149.88860 | 35975 ft | 508 kts | 351° |
| 2026-05-01 08:06 | -15.44387 | -149.90347 | 35969 ft | 508 kts | 351° |
| 2026-05-01 08:07 | -15.30262 | -149.92355 | 35972 ft | 507 kts | 351° |
| 2026-05-01 08:08 | -15.19697 | -149.93860 | 35974 ft | 507 kts | 351° |
| 2026-05-01 08:09 | -15.05625 | -149.95866 | 35972 ft | 508 kts | 351° |
| 2026-05-01 08:09 | -14.98556 | -149.96878 | 35970 ft | 507 kts | 351° |
| 2026-05-01 08:10 | -14.84510 | -149.99083 | 35965 ft | 509 kts | 350° |
| 2026-05-01 08:11 | -14.70422 | -150.01289 | 35959 ft | 506 kts | 351° |
| 2026-05-01 08:12 | -14.59915 | -150.02930 | 35960 ft | 508 kts | 350° |
| 2026-05-01 08:13 | -14.49394 | -150.04570 | 35960 ft | 507 kts | 350° |
| 2026-05-01 08:13 | -14.38892 | -150.06207 | 35952 ft | 507 kts | 350° |
| 2026-05-01 08:14 | -14.31870 | -150.07300 | 35950 ft | 507 kts | 350° |
| 2026-05-01 08:14 | -14.24808 | -150.08398 | 35946 ft | 507 kts | 350° |
| 2026-05-01 08:15 | -14.14291 | -150.10033 | 35952 ft | 509 kts | 350° |
| 2026-05-01 08:16 | -14.07243 | -150.11127 | 35951 ft | 506 kts | 350° |
| 2026-05-01 08:16 | -14.00251 | -150.12212 | 35951 ft | 505 kts | 351° |
| 2026-05-01 08:17 | -13.93251 | -150.13298 | 35955 ft | 507 kts | 350° |
| 2026-05-01 08:17 | -13.86233 | -150.14386 | 35949 ft | 505 kts | 350° |
| 2026-05-01 08:18 | -13.79223 | -150.15471 | 35948 ft | 506 kts | 351° |
| 2026-05-01 08:19 | -13.65202 | -150.17642 | 35950 ft | 507 kts | 350° |
| 2026-05-01 08:19 | -13.58174 | -150.18729 | 35950 ft | 507 kts | 350° |
| 2026-05-01 08:20 | -13.51190 | -150.19807 | 35951 ft | 505 kts | 350° |
| 2026-05-01 08:20 | -13.44196 | -150.20888 | 35951 ft | 506 kts | 350° |
| 2026-05-01 08:21 | -13.37210 | -150.21967 | 35951 ft | 506 kts | 350° |
| 2026-05-01 08:21 | -13.30196 | -150.23048 | 35952 ft | 506 kts | 350° |
| 2026-05-01 08:22 | -13.23154 | -150.24133 | 35953 ft | 506 kts | 350° |
| 2026-05-01 08:22 | -13.16106 | -150.25220 | 35952 ft | 506 kts | 350° |
| 2026-05-01 08:23 | -13.09078 | -150.26302 | 35953 ft | 506 kts | 350° |
| 2026-05-01 08:23 | -13.02086 | -150.27379 | 35952 ft | 506 kts | 350° |
| 2026-05-01 08:24 | -12.95047 | -150.28461 | 35952 ft | 507 kts | 350° |
| 2026-05-01 08:24 | -12.87987 | -150.29546 | 35942 ft | 507 kts | 350° |
| 2026-05-01 08:25 | -12.81017 | -150.30617 | 35942 ft | 506 kts | 351° |
| 2026-05-01 08:25 | -12.74015 | -150.31692 | 35950 ft | 507 kts | 350° |
| 2026-05-01 08:26 | -12.66958 | -150.32776 | 35950 ft | 506 kts | 350° |
| 2026-05-01 08:26 | -12.59945 | -150.33850 | 35945 ft | 506 kts | 350° |
| 2026-05-01 08:27 | -12.52829 | -150.34941 | 35948 ft | 508 kts | 350° |
| 2026-05-01 08:27 | -12.45727 | -150.36031 | 35955 ft | 507 kts | 351° |
| 2026-05-01 08:28 | -12.38649 | -150.37114 | 35954 ft | 510 kts | 350° |
| 2026-05-01 08:28 | -12.31627 | -150.38188 | 35949 ft | 507 kts | 350° |
| 2026-05-01 08:29 | -12.24626 | -150.39259 | 35951 ft | 507 kts | 351° |
| 2026-05-01 08:29 | -12.17563 | -150.40340 | 35953 ft | 509 kts | 351° |
| 2026-05-01 08:30 | -12.10530 | -150.41414 | 35952 ft | 507 kts | 350° |
| 2026-05-01 08:30 | -12.03475 | -150.42491 | 35951 ft | 510 kts | 350° |
| 2026-05-01 08:31 | -11.96433 | -150.43565 | 35954 ft | 508 kts | 350° |
| 2026-05-01 08:31 | -11.89379 | -150.44641 | 35952 ft | 508 kts | 350° |
| 2026-05-01 08:32 | -11.82306 | -150.45720 | 35948 ft | 509 kts | 350° |
| 2026-05-01 08:32 | -11.75287 | -150.46790 | 35949 ft | 507 kts | 350° |
| 2026-05-01 08:33 | -11.68274 | -150.47858 | 35948 ft | 509 kts | 350° |
| 2026-05-01 08:33 | -11.61175 | -150.48940 | 35950 ft | 509 kts | 350° |
| 2026-05-01 08:34 | -11.54177 | -150.50003 | 35947 ft | 508 kts | 350° |
| 2026-05-01 08:34 | -11.47088 | -150.51082 | 35940 ft | 509 kts | 350° |
| 2026-05-01 08:35 | -11.40022 | -150.52156 | 35938 ft | 510 kts | 350° |
| 2026-05-01 08:35 | -11.32914 | -150.53236 | 35937 ft | 510 kts | 350° |
| 2026-05-01 08:36 | -11.25873 | -150.54305 | 35937 ft | 507 kts | 350° |
| 2026-05-01 08:36 | -11.18792 | -150.55380 | 35937 ft | 509 kts | 350° |
| 2026-05-01 08:37 | -11.11687 | -150.56457 | 35932 ft | 509 kts | 350° |
| 2026-05-01 08:37 | -11.04621 | -150.57529 | 35935 ft | 511 kts | 350° |
| 2026-05-01 08:38 | -10.97541 | -150.58601 | 35932 ft | 508 kts | 350° |
| 2026-05-01 08:38 | -10.90395 | -150.59685 | 35934 ft | 510 kts | 350° |
| 2026-05-01 08:39 | -10.83340 | -150.60753 | 35929 ft | 512 kts | 350° |
| 2026-05-01 08:39 | -10.76272 | -150.61822 | 35925 ft | 509 kts | 350° |
| 2026-05-01 08:40 | -10.65722 | -150.63417 | 35927 ft | 508 kts | 350° |
| 2026-05-01 08:40 | -10.58676 | -150.64482 | 35927 ft | 510 kts | 350° |
| 2026-05-01 08:41 | -10.51655 | -150.65544 | 35930 ft | 510 kts | 351° |
| 2026-05-01 08:41 | -10.44578 | -150.66612 | 35931 ft | 509 kts | 350° |
| 2026-05-01 08:42 | -10.37495 | -150.67682 | 35930 ft | 509 kts | 350° |
| 2026-05-01 08:42 | -10.30463 | -150.68742 | 35933 ft | 510 kts | 350° |
| 2026-05-01 08:43 | -10.23391 | -150.69809 | 35932 ft | 508 kts | 351° |
| 2026-05-01 08:43 | -10.16354 | -150.70869 | 35933 ft | 510 kts | 350° |
| 2026-05-01 08:44 | -10.09269 | -150.71938 | 35932 ft | 507 kts | 350° |
| 2026-05-01 08:44 | -10.02268 | -150.72992 | 35933 ft | 509 kts | 350° |
| 2026-05-01 08:45 | -9.95220 | -150.74069 | 35932 ft | 508 kts | 350° |
| 2026-05-01 08:45 | -9.88161 | -150.75168 | 35926 ft | 509 kts | 350° |
| 2026-05-01 08:46 | -9.81109 | -150.76263 | 35924 ft | 510 kts | 350° |
| 2026-05-01 08:46 | -9.74049 | -150.77361 | 35923 ft | 510 kts | 350° |
| 2026-05-01 08:47 | -9.66992 | -150.78455 | 35923 ft | 509 kts | 350° |
| 2026-05-01 08:47 | -9.59942 | -150.79547 | 35921 ft | 510 kts | 350° |
| 2026-05-01 08:48 | -9.52854 | -150.80646 | 35920 ft | 509 kts | 350° |
| 2026-05-01 08:48 | -9.45775 | -150.81741 | 35922 ft | 509 kts | 350° |
| 2026-05-01 08:49 | -9.38734 | -150.82832 | 35918 ft | 507 kts | 350° |
| 2026-05-01 08:49 | -9.31675 | -150.83923 | 35918 ft | 509 kts | 350° |
| 2026-05-01 08:50 | -9.24663 | -150.85008 | 35916 ft | 507 kts | 350° |
| 2026-05-01 08:50 | -9.17670 | -150.86090 | 35921 ft | 509 kts | 350° |
| 2026-05-01 08:51 | -9.10584 | -150.87184 | 35926 ft | 507 kts | 350° |
| 2026-05-01 08:51 | -9.03510 | -150.88277 | 35931 ft | 508 kts | 350° |
| 2026-05-01 08:52 | -8.96481 | -150.89363 | 35932 ft | 507 kts | 350° |
| 2026-05-01 08:52 | -8.89422 | -150.90453 | 35932 ft | 508 kts | 350° |
| 2026-05-01 08:53 | -8.82400 | -150.91536 | 35928 ft | 509 kts | 349° |
| 2026-05-01 08:53 | -8.75369 | -150.92619 | 35927 ft | 506 kts | 350° |
| 2026-05-01 08:54 | -8.68330 | -150.93706 | 35929 ft | 506 kts | 350° |
| 2026-05-01 08:54 | -8.61362 | -150.94778 | 35929 ft | 505 kts | 350° |
| 2026-05-01 08:55 | -8.54363 | -150.95857 | 35929 ft | 505 kts | 350° |
| 2026-05-01 08:55 | -8.47386 | -150.96931 | 35927 ft | 505 kts | 350° |
| 2026-05-01 08:56 | -8.40400 | -150.98007 | 35918 ft | 506 kts | 350° |
| 2026-05-01 08:56 | -8.33400 | -150.99085 | 35919 ft | 507 kts | 350° |
| 2026-05-01 08:57 | -8.26351 | -151.00169 | 35915 ft | 506 kts | 349° |
| 2026-05-01 08:57 | -8.19363 | -151.01244 | 35916 ft | 505 kts | 350° |
| 2026-05-01 08:58 | -8.12354 | -151.02321 | 35912 ft | 503 kts | 349° |
| 2026-05-01 08:58 | -8.05407 | -151.03389 | 35911 ft | 503 kts | 350° |
| 2026-05-01 08:59 | -7.98350 | -151.04472 | 35912 ft | 504 kts | 350° |
| 2026-05-01 08:59 | -7.91349 | -151.05548 | 35911 ft | 505 kts | 350° |
| 2026-05-01 09:00 | -7.84322 | -151.06627 | 35906 ft | 505 kts | 350° |
| 2026-05-01 09:00 | -7.77287 | -151.07706 | 35905 ft | 506 kts | 350° |
| 2026-05-01 09:01 | -7.70245 | -151.08786 | 35906 ft | 506 kts | 349° |
| 2026-05-01 09:01 | -7.63247 | -151.09859 | 35909 ft | 505 kts | 349° |
| 2026-05-01 09:02 | -7.56259 | -151.10930 | 35907 ft | 504 kts | 349° |
| 2026-05-01 09:02 | -7.49247 | -151.12006 | 35912 ft | 505 kts | 349° |
| 2026-05-01 09:03 | -7.42229 | -151.13080 | 35918 ft | 507 kts | 349° |
| 2026-05-01 09:03 | -7.35242 | -151.14149 | 35920 ft | 506 kts | 349° |
| 2026-05-01 09:04 | -7.28242 | -151.15222 | 35914 ft | 506 kts | 349° |
| 2026-05-01 09:04 | -7.21240 | -151.16293 | 35917 ft | 505 kts | 349° |
| 2026-05-01 09:05 | -7.14237 | -151.17364 | 35913 ft | 505 kts | 349° |
| 2026-05-01 09:05 | -7.07226 | -151.18437 | 35914 ft | 507 kts | 349° |
| 2026-05-01 09:06 | -7.00185 | -151.19514 | 35913 ft | 505 kts | 349° |
| 2026-05-01 09:06 | -6.93201 | -151.20581 | 35911 ft | 506 kts | 349° |
| 2026-05-01 09:07 | -6.86207 | -151.21651 | 35908 ft | 507 kts | 349° |
| 2026-05-01 09:07 | -6.79194 | -151.22722 | 35906 ft | 507 kts | 349° |
| 2026-05-01 09:08 | -6.72183 | -151.23793 | 35907 ft | 506 kts | 349° |
| 2026-05-01 09:08 | -6.65138 | -151.24869 | 35900 ft | 506 kts | 349° |
| 2026-05-01 09:09 | -6.58159 | -151.25934 | 35892 ft | 506 kts | 349° |
| 2026-05-01 09:09 | -6.51143 | -151.27004 | 35892 ft | 506 kts | 349° |
| 2026-05-01 09:10 | -6.44123 | -151.28075 | 35895 ft | 507 kts | 349° |
| 2026-05-01 09:10 | -6.37088 | -151.29147 | 35897 ft | 506 kts | 349° |
| 2026-05-01 09:11 | -6.30071 | -151.30219 | 35893 ft | 509 kts | 349° |
| 2026-05-01 09:11 | -6.23004 | -151.31296 | 35892 ft | 507 kts | 349° |
| 2026-05-01 09:12 | -6.15938 | -151.32371 | 35892 ft | 508 kts | 349° |
| 2026-05-01 09:12 | -6.08925 | -151.33440 | 35885 ft | 508 kts | 349° |
| 2026-05-01 09:13 | -6.01913 | -151.34508 | 35894 ft | 507 kts | 349° |
| 2026-05-01 09:13 | -5.94898 | -151.35576 | 35890 ft | 508 kts | 349° |
| 2026-05-01 09:14 | -5.87859 | -151.36647 | 35885 ft | 506 kts | 349° |
| 2026-05-01 09:14 | -5.80829 | -151.37718 | 35882 ft | 508 kts | 349° |
| 2026-05-01 09:15 | -5.73746 | -151.38796 | 35890 ft | 508 kts | 348° |
| 2026-05-01 09:15 | -5.66725 | -151.39864 | 35892 ft | 508 kts | 349° |
| 2026-05-01 09:16 | -5.59651 | -151.40939 | 35891 ft | 509 kts | 349° |
| 2026-05-01 09:17 | -5.49080 | -151.42546 | 35892 ft | 508 kts | 348° |
| 2026-05-01 09:17 | -5.38503 | -151.44153 | 35892 ft | 508 kts | 348° |
| 2026-05-01 09:18 | -5.28008 | -151.45747 | 35898 ft | 507 kts | 348° |
| 2026-05-01 09:19 | -5.17496 | -151.47345 | 35906 ft | 508 kts | 348° |
| 2026-05-01 09:20 | -5.06948 | -151.48946 | 35909 ft | 508 kts | 348° |
| 2026-05-01 09:21 | -4.92832 | -151.51225 | 35910 ft | 507 kts | 347° |
| 2026-05-01 09:21 | -4.82417 | -151.53061 | 35893 ft | 506 kts | 347° |
| 2026-05-01 09:22 | -4.68491 | -151.55501 | 35884 ft | 506 kts | 347° |
| 2026-05-01 09:23 | -4.58061 | -151.57324 | 35885 ft | 505 kts | 347° |
| 2026-05-01 09:24 | -4.47521 | -151.59164 | 35885 ft | 505 kts | 347° |
| 2026-05-01 09:25 | -4.33620 | -151.61589 | 35885 ft | 505 kts | 347° |
| 2026-05-01 09:26 | -4.23180 | -151.63411 | 35886 ft | 503 kts | 347° |
| 2026-05-01 09:26 | -4.12733 | -151.65233 | 35890 ft | 503 kts | 347° |
| 2026-05-01 09:27 | -4.02358 | -151.67041 | 35893 ft | 504 kts | 347° |
| 2026-05-01 09:28 | -3.95392 | -151.68256 | 35893 ft | 504 kts | 347° |
| 2026-05-01 09:28 | -3.88491 | -151.69458 | 35888 ft | 503 kts | 347° |
| 2026-05-01 09:29 | -3.78109 | -151.71266 | 35887 ft | 502 kts | 347° |
| 2026-05-01 09:30 | -3.67734 | -151.73073 | 35890 ft | 502 kts | 347° |
| 2026-05-01 09:30 | -3.57398 | -151.74873 | 35889 ft | 502 kts | 347° |
| 2026-05-01 09:31 | -3.50458 | -151.76082 | 35891 ft | 502 kts | 347° |
| 2026-05-01 09:32 | -3.40145 | -151.77876 | 35890 ft | 502 kts | 347° |
| 2026-05-01 09:32 | -3.29802 | -151.79677 | 35891 ft | 500 kts | 347° |
| 2026-05-01 09:33 | -3.22926 | -151.80873 | 35890 ft | 499 kts | 347° |
| 2026-05-01 09:34 | -3.12622 | -151.82665 | 35891 ft | 499 kts | 347° |
| 2026-05-01 09:34 | -3.02326 | -151.84456 | 35891 ft | 499 kts | 347° |
| 2026-05-01 09:35 | -2.92064 | -151.86241 | 35887 ft | 498 kts | 347° |
| 2026-05-01 09:36 | -2.85138 | -151.87445 | 35873 ft | 498 kts | 347° |
| 2026-05-01 09:36 | -2.78283 | -151.88637 | 35866 ft | 497 kts | 347° |
| 2026-05-01 09:37 | -2.71412 | -151.89831 | 35868 ft | 497 kts | 347° |
| 2026-05-01 09:37 | -2.61147 | -151.91615 | 35868 ft | 497 kts | 347° |
| 2026-05-01 09:38 | -2.50871 | -151.93401 | 35868 ft | 497 kts | 347° |
| 2026-05-01 09:39 | -2.40566 | -151.95192 | 35870 ft | 497 kts | 346° |
| 2026-05-01 09:39 | -2.33760 | -151.96403 | 35871 ft | 497 kts | 346° |
| 2026-05-01 09:40 | -2.23506 | -151.98231 | 35874 ft | 496 kts | 346° |
| 2026-05-01 09:41 | -2.16643 | -151.99452 | 35876 ft | 497 kts | 346° |
| 2026-05-01 09:41 | -2.06388 | -152.01279 | 35882 ft | 497 kts | 346° |
| 2026-05-01 09:42 | -1.99561 | -152.02493 | 35890 ft | 497 kts | 346° |
| 2026-05-01 09:43 | -1.85868 | -152.04930 | 35886 ft | 495 kts | 346° |
| 2026-05-01 09:43 | -1.79061 | -152.06140 | 35887 ft | 496 kts | 346° |
| 2026-05-01 09:44 | -1.68849 | -152.07958 | 35888 ft | 495 kts | 346° |
| 2026-05-01 09:45 | -1.62018 | -152.09172 | 35886 ft | 495 kts | 346° |
| 2026-05-01 09:45 | -1.51841 | -152.10982 | 35887 ft | 495 kts | 346° |
| 2026-05-01 09:46 | -1.45031 | -152.12193 | 35886 ft | 494 kts | 346° |
| 2026-05-01 09:46 | -1.38251 | -152.13399 | 35889 ft | 493 kts | 346° |
| 2026-05-01 09:47 | -1.31455 | -152.14606 | 35888 ft | 493 kts | 346° |
| 2026-05-01 09:47 | -1.24685 | -152.15810 | 35886 ft | 493 kts | 346° |
| 2026-05-01 09:48 | -1.17909 | -152.17015 | 35886 ft | 492 kts | 346° |
| 2026-05-01 09:48 | -1.11118 | -152.18222 | 35877 ft | 492 kts | 346° |
| 2026-05-01 09:49 | -1.04334 | -152.19428 | 35867 ft | 493 kts | 346° |
| 2026-05-01 09:49 | -0.97518 | -152.20639 | 35868 ft | 492 kts | 346° |
| 2026-05-01 09:50 | -0.90786 | -152.21835 | 35867 ft | 491 kts | 346° |
| 2026-05-01 09:50 | -0.84028 | -152.23038 | 35866 ft | 491 kts | 346° |
| 2026-05-01 09:51 | -0.77254 | -152.24242 | 35866 ft | 491 kts | 346° |
| 2026-05-01 09:51 | -0.70483 | -152.25446 | 35867 ft | 491 kts | 346° |
| 2026-05-01 09:52 | -0.63753 | -152.26640 | 35867 ft | 490 kts | 346° |
| 2026-05-01 09:52 | -0.57005 | -152.27840 | 35866 ft | 490 kts | 346° |
| 2026-05-01 09:53 | -0.50258 | -152.29039 | 35866 ft | 490 kts | 346° |
| 2026-05-01 09:53 | -0.43491 | -152.30241 | 35865 ft | 489 kts | 346° |
| 2026-05-01 09:54 | -0.36789 | -152.31433 | 35868 ft | 489 kts | 346° |
| 2026-05-01 09:54 | -0.30042 | -152.32632 | 35866 ft | 489 kts | 346° |
| 2026-05-01 09:55 | -0.23309 | -152.33829 | 35866 ft | 489 kts | 346° |
| 2026-05-01 09:55 | -0.16601 | -152.35020 | 35864 ft | 489 kts | 346° |
| 2026-05-01 09:56 | -0.09881 | -152.36215 | 35866 ft | 488 kts | 346° |
| 2026-05-01 09:56 | -0.03175 | -152.37405 | 35867 ft | 488 kts | 346° |
| 2026-05-01 09:57 | 0.03515 | -152.38596 | 35868 ft | 488 kts | 346° |
| 2026-05-01 09:57 | 0.10246 | -152.39792 | 35864 ft | 487 kts | 346° |
| 2026-05-01 09:58 | 0.16915 | -152.40976 | 35866 ft | 487 kts | 346° |
| 2026-05-01 09:58 | 0.23628 | -152.42169 | 35876 ft | 487 kts | 346° |
| 2026-05-01 09:59 | 0.30353 | -152.43364 | 35885 ft | 488 kts | 346° |
| 2026-05-01 09:59 | 0.37035 | -152.44553 | 35884 ft | 487 kts | 346° |
| 2026-05-01 10:00 | 0.43730 | -152.45741 | 35884 ft | 487 kts | 346° |
| 2026-05-01 10:00 | 0.50486 | -152.46942 | 35885 ft | 487 kts | 346° |
| 2026-05-01 10:01 | 0.57225 | -152.48140 | 35884 ft | 486 kts | 346° |
| 2026-05-01 10:01 | 0.63902 | -152.49327 | 35884 ft | 487 kts | 346° |
| 2026-05-01 10:02 | 0.70672 | -152.50529 | 35884 ft | 488 kts | 346° |
| 2026-05-01 10:02 | 0.77404 | -152.51726 | 35880 ft | 487 kts | 346° |
| 2026-05-01 10:03 | 0.84112 | -152.52919 | 35878 ft | 488 kts | 346° |
| 2026-05-01 10:03 | 0.90831 | -152.54112 | 35873 ft | 488 kts | 346° |
| 2026-05-01 10:04 | 0.97549 | -152.55307 | 35864 ft | 488 kts | 346° |
| 2026-05-01 10:04 | 1.04270 | -152.56502 | 35864 ft | 487 kts | 346° |
| 2026-05-01 10:05 | 1.10952 | -152.57689 | 35863 ft | 487 kts | 346° |
| 2026-05-01 10:05 | 1.17678 | -152.58885 | 35863 ft | 488 kts | 346° |
| 2026-05-01 10:06 | 1.24390 | -152.60078 | 35863 ft | 488 kts | 346° |
| 2026-05-01 10:06 | 1.31146 | -152.61279 | 35862 ft | 488 kts | 346° |
| 2026-05-01 10:07 | 1.37931 | -152.62486 | 35863 ft | 488 kts | 346° |
| 2026-05-01 10:07 | 1.44663 | -152.63683 | 35862 ft | 488 kts | 346° |
| 2026-05-01 10:08 | 1.54737 | -152.65474 | 35872 ft | 488 kts | 346° |
| 2026-05-01 10:09 | 1.61515 | -152.66679 | 35872 ft | 488 kts | 346° |
| 2026-05-01 10:09 | 1.68237 | -152.67876 | 35872 ft | 488 kts | 346° |
| 2026-05-01 10:10 | 1.74975 | -152.69073 | 35871 ft | 489 kts | 346° |
| 2026-05-01 10:10 | 1.85050 | -152.70866 | 35873 ft | 488 kts | 346° |
| 2026-05-01 10:11 | 1.91764 | -152.72060 | 35871 ft | 489 kts | 346° |
| 2026-05-01 10:11 | 1.98557 | -152.73268 | 35872 ft | 487 kts | 346° |
| 2026-05-01 10:12 | 2.04129 | -152.74260 | 35872 ft | 488 kts | 346° |
| 2026-05-01 10:13 | 2.15421 | -152.76270 | 35867 ft | 488 kts | 346° |
| 2026-05-01 10:13 | 2.22152 | -152.77467 | 35870 ft | 489 kts | 346° |
| 2026-05-01 10:14 | 2.32410 | -152.79294 | 35871 ft | 489 kts | 346° |
| 2026-05-01 10:14 | 2.39220 | -152.80505 | 35868 ft | 489 kts | 346° |
| 2026-05-01 10:15 | 2.45981 | -152.81709 | 35873 ft | 489 kts | 346° |
| 2026-05-01 10:15 | 2.52747 | -152.82913 | 35873 ft | 488 kts | 346° |
| 2026-05-01 10:16 | 2.59473 | -152.84111 | 35880 ft | 489 kts | 346° |
| 2026-05-01 10:17 | 2.69514 | -152.85899 | 35875 ft | 489 kts | 346° |
| 2026-05-01 10:17 | 2.79655 | -152.87706 | 35877 ft | 490 kts | 346° |
| 2026-05-01 10:18 | 2.89781 | -152.89510 | 35873 ft | 490 kts | 346° |
| 2026-05-01 10:19 | 2.96495 | -152.90706 | 35873 ft | 490 kts | 346° |
| 2026-05-01 10:19 | 3.03225 | -152.91905 | 35869 ft | 488 kts | 346° |
| 2026-05-01 10:20 | 3.13318 | -152.93704 | 35867 ft | 488 kts | 346° |
| 2026-05-01 10:20 | 3.19998 | -152.94896 | 35868 ft | 490 kts | 346° |
| 2026-05-01 10:21 | 3.30107 | -152.96698 | 35870 ft | 490 kts | 346° |
| 2026-05-01 10:22 | 3.40197 | -152.98497 | 35868 ft | 490 kts | 346° |
| 2026-05-01 10:23 | 3.50327 | -153.00304 | 35867 ft | 490 kts | 346° |
| 2026-05-01 10:23 | 3.60391 | -153.02098 | 35869 ft | 491 kts | 346° |
| 2026-05-01 10:24 | 3.73928 | -153.04515 | 35868 ft | 491 kts | 346° |
| 2026-05-01 10:25 | 3.87380 | -153.06915 | 35868 ft | 491 kts | 346° |
| 2026-05-01 10:26 | 3.94122 | -153.08119 | 35866 ft | 489 kts | 346° |
| 2026-05-01 10:27 | 4.07616 | -153.10529 | 35869 ft | 490 kts | 345° |
| 2026-05-01 10:28 | 4.17792 | -153.12347 | 35866 ft | 492 kts | 345° |
| 2026-05-01 10:28 | 4.27940 | -153.14160 | 35864 ft | 492 kts | 345° |
| 2026-05-01 10:29 | 4.38110 | -153.15979 | 35854 ft | 493 kts | 346° |
| 2026-05-01 10:30 | 4.51666 | -153.18405 | 35847 ft | 493 kts | 346° |
| 2026-05-01 10:31 | 4.65073 | -153.20808 | 35847 ft | 493 kts | 346° |
| 2026-05-01 10:32 | 4.75252 | -153.22632 | 35850 ft | 492 kts | 346° |
| 2026-05-01 10:33 | 4.88875 | -153.25076 | 35863 ft | 494 kts | 346° |
| 2026-05-01 10:34 | 4.99065 | -153.26903 | 35867 ft | 493 kts | 346° |
| 2026-05-01 10:34 | 5.05846 | -153.28120 | 35868 ft | 494 kts | 346° |
| 2026-05-01 10:35 | 5.16097 | -153.29961 | 35865 ft | 493 kts | 345° |
| 2026-05-01 10:35 | 5.22895 | -153.31180 | 35864 ft | 493 kts | 345° |
| 2026-05-01 10:36 | 5.33080 | -153.33009 | 35865 ft | 493 kts | 345° |
| 2026-05-01 10:37 | 5.39867 | -153.34229 | 35865 ft | 493 kts | 345° |
| 2026-05-01 10:37 | 5.50039 | -153.36057 | 35866 ft | 492 kts | 345° |
| 2026-05-01 10:38 | 5.56825 | -153.37277 | 35865 ft | 493 kts | 345° |
| 2026-05-01 10:38 | 5.63638 | -153.38501 | 35866 ft | 493 kts | 345° |
| 2026-05-01 10:39 | 5.70414 | -153.39720 | 35865 ft | 493 kts | 345° |
| 2026-05-01 10:39 | 5.77159 | -153.40933 | 35865 ft | 492 kts | 345° |
| 2026-05-01 10:40 | 5.83929 | -153.42151 | 35866 ft | 493 kts | 345° |
| 2026-05-01 10:40 | 5.90710 | -153.43372 | 35865 ft | 492 kts | 345° |
| 2026-05-01 10:41 | 5.97542 | -153.44601 | 35865 ft | 492 kts | 345° |
| 2026-05-01 10:42 | 6.07730 | -153.46436 | 35866 ft | 493 kts | 345° |
| 2026-05-01 10:42 | 6.14526 | -153.47659 | 35857 ft | 493 kts | 345° |
| 2026-05-01 10:43 | 6.21309 | -153.48881 | 35854 ft | 493 kts | 345° |
| 2026-05-01 10:43 | 6.28056 | -153.50098 | 35850 ft | 493 kts | 345° |
| 2026-05-01 10:44 | 6.34805 | -153.51314 | 35848 ft | 492 kts | 345° |
| 2026-05-01 10:44 | 6.41620 | -153.52544 | 35851 ft | 493 kts | 345° |
| 2026-05-01 10:45 | 6.48390 | -153.53764 | 35854 ft | 492 kts | 345° |
| 2026-05-01 10:45 | 6.55155 | -153.54985 | 35853 ft | 492 kts | 345° |
| 2026-05-01 10:46 | 6.61970 | -153.56215 | 35854 ft | 492 kts | 345° |
| 2026-05-01 10:46 | 6.68718 | -153.57433 | 35858 ft | 492 kts | 345° |
| 2026-05-01 10:47 | 6.75494 | -153.58656 | 35860 ft | 491 kts | 345° |
| 2026-05-01 10:47 | 6.82278 | -153.59882 | 35860 ft | 493 kts | 345° |
| 2026-05-01 10:48 | 6.89062 | -153.61107 | 35860 ft | 492 kts | 345° |
| 2026-05-01 10:48 | 6.95876 | -153.62338 | 35861 ft | 492 kts | 345° |
| 2026-05-01 10:49 | 7.02708 | -153.63573 | 35864 ft | 492 kts | 344° |
| 2026-05-01 10:49 | 7.09481 | -153.64798 | 35864 ft | 493 kts | 344° |
| 2026-05-01 10:50 | 7.16269 | -153.66025 | 35871 ft | 492 kts | 344° |
| 2026-05-01 10:50 | 7.22996 | -153.67242 | 35871 ft | 491 kts | 344° |
| 2026-05-01 10:51 | 7.29781 | -153.68471 | 35871 ft | 491 kts | 344° |
| 2026-05-01 10:51 | 7.36560 | -153.69698 | 35872 ft | 492 kts | 344° |
| 2026-05-01 10:52 | 7.43304 | -153.70920 | 35873 ft | 492 kts | 344° |
| 2026-05-01 10:52 | 7.50101 | -153.72151 | 35875 ft | 493 kts | 344° |
| 2026-05-01 10:53 | 7.56873 | -153.73378 | 35873 ft | 493 kts | 344° |
| 2026-05-01 10:53 | 7.63635 | -153.74603 | 35872 ft | 492 kts | 344° |
| 2026-05-01 10:54 | 7.70399 | -153.75830 | 35873 ft | 493 kts | 344° |
| 2026-05-01 10:54 | 7.77130 | -153.77051 | 35873 ft | 493 kts | 344° |
| 2026-05-01 10:55 | 7.83919 | -153.78282 | 35873 ft | 493 kts | 344° |
| 2026-05-01 10:55 | 7.89963 | -153.79379 | 35874 ft | 493 kts | 344° |
| 2026-05-01 10:56 | 7.96762 | -153.80614 | 35875 ft | 494 kts | 344° |
| 2026-05-01 10:56 | 8.03529 | -153.81842 | 35873 ft | 491 kts | 344° |
| 2026-05-01 10:57 | 8.10306 | -153.83075 | 35873 ft | 492 kts | 344° |
| 2026-05-01 10:57 | 8.17069 | -153.84303 | 35869 ft | 492 kts | 344° |
| 2026-05-01 10:58 | 8.23857 | -153.85538 | 35871 ft | 490 kts | 344° |
| 2026-05-01 10:58 | 8.30625 | -153.86769 | 35871 ft | 492 kts | 344° |
| 2026-05-01 10:59 | 8.37387 | -153.87999 | 35877 ft | 491 kts | 344° |
| 2026-05-01 10:59 | 8.44167 | -153.89233 | 35878 ft | 492 kts | 344° |
| 2026-05-01 11:00 | 8.50868 | -153.90453 | 35881 ft | 492 kts | 344° |
| 2026-05-01 11:00 | 8.57639 | -153.91685 | 35881 ft | 492 kts | 344° |
| 2026-05-01 11:01 | 8.64419 | -153.92921 | 35885 ft | 492 kts | 344° |
| 2026-05-01 11:01 | 8.71188 | -153.94154 | 35888 ft | 493 kts | 344° |
| 2026-05-01 11:02 | 8.77965 | -153.95390 | 35890 ft | 491 kts | 344° |
| 2026-05-01 11:02 | 8.84744 | -153.96626 | 35890 ft | 490 kts | 344° |
| 2026-05-01 11:03 | 8.91496 | -153.97859 | 35891 ft | 490 kts | 344° |
| 2026-05-01 11:03 | 8.98254 | -153.99092 | 35892 ft | 491 kts | 344° |
| 2026-05-01 11:04 | 9.04993 | -154.00323 | 35892 ft | 490 kts | 344° |
| 2026-05-01 11:04 | 9.11714 | -154.01550 | 35887 ft | 491 kts | 344° |
| 2026-05-01 11:05 | 9.18449 | -154.02782 | 35888 ft | 491 kts | 344° |
| 2026-05-01 11:05 | 9.25185 | -154.04013 | 35887 ft | 491 kts | 344° |
| 2026-05-01 11:06 | 9.31961 | -154.05252 | 35886 ft | 490 kts | 344° |
| 2026-05-01 11:06 | 9.38697 | -154.06485 | 35888 ft | 491 kts | 344° |
| 2026-05-01 11:07 | 9.48863 | -154.08345 | 35886 ft | 490 kts | 343° |
| 2026-05-01 11:07 | 9.55600 | -154.09580 | 35881 ft | 492 kts | 343° |
| 2026-05-01 11:08 | 9.62383 | -154.10822 | 35879 ft | 490 kts | 343° |
| 2026-05-01 11:09 | 9.72501 | -154.12677 | 35883 ft | 490 kts | 343° |
| 2026-05-01 11:09 | 9.79262 | -154.13916 | 35883 ft | 492 kts | 343° |
| 2026-05-01 11:10 | 9.89398 | -154.15778 | 35888 ft | 493 kts | 343° |
| 2026-05-01 11:10 | 9.96189 | -154.17023 | 35885 ft | 492 kts | 343° |
| 2026-05-01 11:11 | 10.02933 | -154.18262 | 35887 ft | 492 kts | 343° |
| 2026-05-01 11:11 | 10.09707 | -154.19507 | 35890 ft | 492 kts | 343° |
| 2026-05-01 11:12 | 10.16431 | -154.20741 | 35884 ft | 490 kts | 343° |
| 2026-05-01 11:12 | 10.23244 | -154.21995 | 35887 ft | 490 kts | 343° |
| 2026-05-01 11:13 | 10.29978 | -154.23235 | 35893 ft | 490 kts | 343° |
| 2026-05-01 11:13 | 10.36738 | -154.24480 | 35895 ft | 493 kts | 343° |
| 2026-05-01 11:14 | 10.43472 | -154.25719 | 35891 ft | 490 kts | 343° |
| 2026-05-01 11:14 | 10.50202 | -154.26959 | 35885 ft | 491 kts | 343° |
| 2026-05-01 11:15 | 10.56950 | -154.28201 | 35891 ft | 488 kts | 343° |
| 2026-05-01 11:15 | 10.63662 | -154.29440 | 35891 ft | 491 kts | 343° |
| 2026-05-01 11:16 | 10.70423 | -154.30687 | 35895 ft | 491 kts | 343° |
| 2026-05-01 11:16 | 10.77158 | -154.31929 | 35899 ft | 489 kts | 343° |
| 2026-05-01 11:17 | 10.83871 | -154.33170 | 35902 ft | 489 kts | 342° |
| 2026-05-01 11:17 | 10.90571 | -154.34407 | 35903 ft | 489 kts | 342° |
| 2026-05-01 11:18 | 10.97344 | -154.35658 | 35906 ft | 490 kts | 342° |
| 2026-05-01 11:18 | 11.04055 | -154.36899 | 35907 ft | 488 kts | 342° |
| 2026-05-01 11:19 | 11.10722 | -154.38132 | 35903 ft | 488 kts | 342° |
| 2026-05-01 11:19 | 11.17441 | -154.39377 | 35904 ft | 489 kts | 342° |
| 2026-05-01 11:20 | 11.24151 | -154.40619 | 35901 ft | 488 kts | 342° |
| 2026-05-01 11:20 | 11.30848 | -154.41858 | 35903 ft | 490 kts | 342° |
| 2026-05-01 11:21 | 11.37612 | -154.43106 | 35902 ft | 486 kts | 342° |
| 2026-05-01 11:21 | 11.44331 | -154.44348 | 35903 ft | 488 kts | 342° |
| 2026-05-01 11:22 | 11.51052 | -154.45590 | 35901 ft | 486 kts | 342° |
| 2026-05-01 11:22 | 11.57773 | -154.46834 | 35901 ft | 487 kts | 342° |
| 2026-05-01 11:23 | 11.64427 | -154.48065 | 35898 ft | 488 kts | 342° |
| 2026-05-01 11:23 | 11.71137 | -154.49307 | 35897 ft | 488 kts | 342° |
| 2026-05-01 11:24 | 11.77857 | -154.50551 | 35897 ft | 488 kts | 342° |
| 2026-05-01 11:25 | 11.87894 | -154.52412 | 35900 ft | 488 kts | 342° |
| 2026-05-01 11:25 | 11.97918 | -154.54271 | 35899 ft | 488 kts | 342° |
| 2026-05-01 11:26 | 12.07963 | -154.56136 | 35904 ft | 487 kts | 342° |
| 2026-05-01 11:27 | 12.14643 | -154.57376 | 35897 ft | 486 kts | 342° |
| 2026-05-01 11:27 | 12.21369 | -154.58627 | 35901 ft | 486 kts | 342° |
| 2026-05-01 11:28 | 12.28017 | -154.59863 | 35903 ft | 485 kts | 342° |
| 2026-05-01 11:28 | 12.34652 | -154.61096 | 35904 ft | 486 kts | 342° |
| 2026-05-01 11:29 | 12.44671 | -154.62962 | 35913 ft | 485 kts | 342° |
| 2026-05-01 11:30 | 12.54583 | -154.64809 | 35912 ft | 483 kts | 342° |
| 2026-05-01 11:30 | 12.61239 | -154.66049 | 35935 ft | 483 kts | 342° |
| 2026-05-01 11:31 | 12.67842 | -154.67281 | 35931 ft | 483 kts | 342° |
| 2026-05-01 11:31 | 12.74443 | -154.68512 | 35934 ft | 481 kts | 341° |
| 2026-05-01 11:32 | 12.81089 | -154.69754 | 35931 ft | 481 kts | 341° |
| 2026-05-01 11:32 | 12.87730 | -154.70995 | 35937 ft | 483 kts | 342° |
| 2026-05-01 11:33 | 12.94346 | -154.72232 | 35935 ft | 481 kts | 341° |
| 2026-05-01 11:33 | 13.00890 | -154.73454 | 35939 ft | 480 kts | 341° |
| 2026-05-01 11:34 | 13.07564 | -154.74704 | 35937 ft | 481 kts | 342° |
| 2026-05-01 11:34 | 13.14121 | -154.75931 | 35935 ft | 480 kts | 342° |
| 2026-05-01 11:35 | 13.20745 | -154.77173 | 35938 ft | 481 kts | 342° |
| 2026-05-01 11:35 | 13.27368 | -154.78415 | 35939 ft | 482 kts | 342° |
| 2026-05-01 11:36 | 13.33948 | -154.79648 | 35941 ft | 480 kts | 342° |
| 2026-05-01 11:36 | 13.40563 | -154.80890 | 35942 ft | 483 kts | 341° |
| 2026-05-01 11:37 | 13.47208 | -154.82136 | 35942 ft | 482 kts | 341° |
| 2026-05-01 11:37 | 13.53824 | -154.83380 | 35942 ft | 480 kts | 341° |
| 2026-05-01 11:38 | 13.60407 | -154.84618 | 35946 ft | 483 kts | 341° |
| 2026-05-01 11:38 | 13.67000 | -154.85857 | 35948 ft | 482 kts | 341° |
| 2026-05-01 11:39 | 13.73634 | -154.87105 | 35948 ft | 478 kts | 341° |
| 2026-05-01 11:39 | 13.80181 | -154.88338 | 35950 ft | 481 kts | 341° |
| 2026-05-01 11:40 | 13.86807 | -154.89587 | 35946 ft | 482 kts | 341° |
| 2026-05-01 11:40 | 13.93446 | -154.90839 | 35949 ft | 483 kts | 341° |
| 2026-05-01 11:41 | 14.00008 | -154.92073 | 35949 ft | 478 kts | 341° |
| 2026-05-01 11:41 | 14.06623 | -154.93326 | 35949 ft | 483 kts | 341° |
| 2026-05-01 11:42 | 14.13255 | -154.94575 | 35953 ft | 483 kts | 341° |
| 2026-05-01 11:42 | 14.19860 | -154.95825 | 35952 ft | 485 kts | 341° |
| 2026-05-01 11:43 | 14.26495 | -154.97078 | 35949 ft | 479 kts | 341° |
| 2026-05-01 11:43 | 14.33040 | -154.98315 | 35951 ft | 483 kts | 340° |
| 2026-05-01 11:44 | 14.43021 | -155.00206 | 35946 ft | 481 kts | 341° |
| 2026-05-01 11:44 | 14.49597 | -155.01451 | 35942 ft | 482 kts | 340° |
| 2026-05-01 11:45 | 14.56171 | -155.02695 | 35941 ft | 475 kts | 340° |
| 2026-05-01 11:45 | 14.62705 | -155.03938 | 35943 ft | 480 kts | 340° |
| 2026-05-01 11:46 | 14.69232 | -155.05174 | 35945 ft | 474 kts | 340° |
| 2026-05-01 11:46 | 14.75773 | -155.06419 | 35943 ft | 478 kts | 340° |
| 2026-05-01 11:47 | 14.82299 | -155.07655 | 35944 ft | 474 kts | 340° |
| 2026-05-01 11:47 | 14.88854 | -155.08907 | 35945 ft | 480 kts | 340° |
| 2026-05-01 11:48 | 14.95410 | -155.10150 | 35951 ft | 475 kts | 340° |
| 2026-05-01 11:48 | 15.01946 | -155.11397 | 35956 ft | 479 kts | 340° |
| 2026-05-01 11:49 | 15.08479 | -155.12639 | 35957 ft | 477 kts | 340° |
| 2026-05-01 11:49 | 15.14957 | -155.13875 | 35954 ft | 474 kts | 340° |
| 2026-05-01 11:50 | 15.21489 | -155.15123 | 35951 ft | 477 kts | 340° |
| 2026-05-01 11:50 | 15.28008 | -155.16363 | 35954 ft | 471 kts | 340° |
| 2026-05-01 11:51 | 15.34534 | -155.17612 | 35956 ft | 474 kts | 340° |
| 2026-05-01 11:51 | 15.40998 | -155.18846 | 35957 ft | 474 kts | 340° |
| 2026-05-01 11:52 | 15.47494 | -155.20087 | 35957 ft | 470 kts | 340° |
| 2026-05-01 11:52 | 15.53953 | -155.21324 | 35958 ft | 474 kts | 340° |
| 2026-05-01 11:53 | 15.60442 | -155.22568 | 35959 ft | 473 kts | 340° |
| 2026-05-01 11:53 | 15.66887 | -155.23799 | 35963 ft | 469 kts | 340° |
| 2026-05-01 11:54 | 15.73330 | -155.25037 | 35964 ft | 471 kts | 340° |
| 2026-05-01 11:54 | 15.79800 | -155.26277 | 35963 ft | 467 kts | 340° |
| 2026-05-01 11:55 | 15.86215 | -155.27508 | 35966 ft | 470 kts | 340° |
| 2026-05-01 11:55 | 15.92660 | -155.28748 | 35967 ft | 470 kts | 340° |
| 2026-05-01 11:56 | 15.99106 | -155.29985 | 35979 ft | 471 kts | 340° |
| 2026-05-01 11:56 | 16.05608 | -155.31236 | 35982 ft | 471 kts | 340° |
| 2026-05-01 11:57 | 16.12021 | -155.32469 | 35991 ft | 468 kts | 340° |
| 2026-05-01 11:57 | 16.18475 | -155.33713 | 35991 ft | 468 kts | 340° |
| 2026-05-01 11:58 | 16.24864 | -155.34944 | 35989 ft | 468 kts | 340° |
| 2026-05-01 11:59 | 16.34501 | -155.36803 | 35993 ft | 467 kts | 340° |
| 2026-05-01 11:59 | 16.40888 | -155.38036 | 35998 ft | 467 kts | 340° |
| 2026-05-01 12:00 | 16.50458 | -155.39883 | 35995 ft | 464 kts | 341° |
| 2026-05-01 12:01 | 16.60070 | -155.41742 | 35999 ft | 462 kts | 341° |
| 2026-05-01 12:01 | 16.66407 | -155.42970 | 35992 ft | 464 kts | 341° |
| 2026-05-01 12:02 | 16.72815 | -155.44212 | 35989 ft | 465 kts | 341° |
| 2026-05-01 12:02 | 16.79156 | -155.45439 | 35996 ft | 464 kts | 341° |
| 2026-05-01 12:03 | 16.85550 | -155.46680 | 35992 ft | 461 kts | 341° |
| 2026-05-01 12:03 | 16.91895 | -155.47911 | 35995 ft | 461 kts | 341° |
| 2026-05-01 12:04 | 16.98303 | -155.49158 | 36002 ft | 464 kts | 341° |
| 2026-05-01 12:04 | 17.04616 | -155.50382 | 36009 ft | 461 kts | 341° |
| 2026-05-01 12:05 | 17.11001 | -155.51625 | 36004 ft | 463 kts | 341° |
| 2026-05-01 12:05 | 17.20477 | -155.53470 | 36008 ft | 464 kts | 341° |
| 2026-05-01 12:06 | 17.26803 | -155.54701 | 36009 ft | 461 kts | 342° |
| 2026-05-01 12:06 | 17.33158 | -155.55940 | 36006 ft | 459 kts | 342° |
| 2026-05-01 12:07 | 17.39450 | -155.57169 | 36007 ft | 459 kts | 342° |
| 2026-05-01 12:07 | 17.45714 | -155.58391 | 36005 ft | 457 kts | 342° |
| 2026-05-01 12:08 | 17.52033 | -155.59627 | 35995 ft | 460 kts | 342° |
| 2026-05-01 12:08 | 17.58287 | -155.60847 | 35994 ft | 458 kts | 342° |
| 2026-05-01 12:09 | 17.64590 | -155.62082 | 36001 ft | 456 kts | 343° |
| 2026-05-01 12:09 | 17.70875 | -155.63312 | 36002 ft | 456 kts | 343° |
| 2026-05-01 12:10 | 17.80258 | -155.65150 | 36002 ft | 454 kts | 342° |
| 2026-05-01 12:11 | 17.89562 | -155.66975 | 36015 ft | 453 kts | 343° |
| 2026-05-01 12:11 | 17.95778 | -155.68196 | 36018 ft | 455 kts | 342° |
| 2026-05-01 12:12 | 18.02000 | -155.69418 | 36018 ft | 454 kts | 343° |
| 2026-05-01 12:12 | 18.08231 | -155.70644 | 36015 ft | 453 kts | 343° |
| 2026-05-01 12:13 | 18.14468 | -155.71892 | 36022 ft | 451 kts | 343° |
| 2026-05-01 12:13 | 18.20685 | -155.73172 | 36021 ft | 451 kts | 343° |
| 2026-05-01 12:14 | 18.26868 | -155.74446 | 36018 ft | 452 kts | 343° |
| 2026-05-01 12:14 | 18.33013 | -155.75711 | 36022 ft | 450 kts | 344° |
| 2026-05-01 12:15 | 18.39178 | -155.76981 | 36018 ft | 446 kts | 344° |
| 2026-05-01 12:15 | 18.45325 | -155.78247 | 36019 ft | 449 kts | 344° |
| 2026-05-01 12:16 | 18.51463 | -155.79512 | 36016 ft | 448 kts | 344° |
| 2026-05-01 12:16 | 18.57610 | -155.80780 | 36015 ft | 446 kts | 345° |
| 2026-05-01 12:17 | 18.63732 | -155.82045 | 36015 ft | 447 kts | 345° |
| 2026-05-01 12:17 | 18.69833 | -155.83304 | 36017 ft | 445 kts | 345° |
| 2026-05-01 12:18 | 18.75932 | -155.84566 | 36010 ft | 446 kts | 345° |
| 2026-05-01 12:18 | 18.82051 | -155.85831 | 36014 ft | 449 kts | 345° |
| 2026-05-01 12:19 | 18.88200 | -155.87105 | 36018 ft | 448 kts | 346° |
| 2026-05-01 12:19 | 18.94303 | -155.88368 | 36016 ft | 446 kts | 346° |
| 2026-05-01 12:20 | 19.00474 | -155.89648 | 36014 ft | 448 kts | 346° |
| 2026-05-01 12:20 | 19.06620 | -155.90922 | 36029 ft | 447 kts | 346° |
| 2026-05-01 12:21 | 19.12719 | -155.92191 | 36050 ft | 450 kts | 346° |
| 2026-05-01 12:21 | 19.18878 | -155.93469 | 36053 ft | 448 kts | 346° |
| 2026-05-01 12:22 | 19.25009 | -155.94745 | 36054 ft | 447 kts | 346° |
| 2026-05-01 12:22 | 19.31078 | -155.96008 | 36051 ft | 446 kts | 346° |
| 2026-05-01 12:23 | 19.37203 | -155.97284 | 36036 ft | 446 kts | 347° |
| 2026-05-01 12:23 | 19.43322 | -155.98558 | 36030 ft | 443 kts | 347° |
| 2026-05-01 12:24 | 19.49413 | -155.99829 | 36019 ft | 446 kts | 346° |
| 2026-05-01 12:24 | 19.55491 | -156.01099 | 36025 ft | 445 kts | 347° |
| 2026-05-01 12:25 | 19.64583 | -156.03072 | 36027 ft | 444 kts | 342° |
| 2026-05-01 12:26 | 19.70199 | -156.05675 | 36031 ft | 441 kts | 327° |
| 2026-05-01 12:26 | 19.74935 | -156.09848 | 36034 ft | 442 kts | 313° |
| 2026-05-01 12:26 | 19.76838 | -156.12396 | 36036 ft | 444 kts | 307° |
| 2026-05-01 12:27 | 19.82162 | -156.20474 | 36020 ft | 446 kts | 306° |
| 2026-05-01 12:28 | 19.87479 | -156.28606 | 36016 ft | 446 kts | 307° |
| 2026-05-01 12:29 | 19.92762 | -156.36702 | 36018 ft | 446 kts | 306° |
| 2026-05-01 12:29 | 19.98072 | -156.44856 | 36022 ft | 448 kts | 306° |
| 2026-05-01 12:30 | 20.03411 | -156.53069 | 36027 ft | 448 kts | 306° |
| 2026-05-01 12:31 | 20.06970 | -156.58550 | 35883 ft | 444 kts | 306° |
| 2026-05-01 12:31 | 20.08708 | -156.61227 | 35384 ft | 440 kts | 307° |
| 2026-05-01 12:31 | 20.10443 | -156.63904 | 34633 ft | 440 kts | 307° |
| 2026-05-01 12:31 | 20.12179 | -156.66580 | 33873 ft | 439 kts | 307° |
| 2026-05-01 12:32 | 20.13904 | -156.69243 | 33303 ft | 435 kts | 307° |
| 2026-05-01 12:32 | 20.17273 | -156.74446 | 32034 ft | 424 kts | 307° |
| 2026-05-01 12:32 | 20.18958 | -156.77002 | 31122 ft | 418 kts | 311° |
| 2026-05-01 12:33 | 20.20876 | -156.79289 | 30189 ft | 412 kts | 318° |
| 2026-05-01 12:33 | 20.22904 | -156.81404 | 29310 ft | 406 kts | 319° |
| 2026-05-01 12:33 | 20.24913 | -156.83487 | 28451 ft | 402 kts | 319° |
| 2026-05-01 12:33 | 20.26897 | -156.85544 | 27574 ft | 398 kts | 319° |
| 2026-05-01 12:34 | 20.28863 | -156.87584 | 26706 ft | 394 kts | 319° |
| 2026-05-01 12:34 | 20.30812 | -156.89606 | 25900 ft | 389 kts | 319° |
| 2026-05-01 12:34 | 20.32724 | -156.91592 | 25084 ft | 384 kts | 319° |
| 2026-05-01 12:34 | 20.34629 | -156.93570 | 24254 ft | 380 kts | 320° |
| 2026-05-01 12:35 | 20.36520 | -156.95534 | 23432 ft | 376 kts | 320° |
| 2026-05-01 12:35 | 20.38362 | -156.97450 | 22872 ft | 366 kts | 320° |
| 2026-05-01 12:35 | 20.40206 | -156.99364 | 22852 ft | 375 kts | 320° |
| 2026-05-01 12:35 | 20.42078 | -157.01308 | 22852 ft | 377 kts | 320° |
| 2026-05-01 12:36 | 20.43949 | -157.03253 | 22854 ft | 377 kts | 320° |
| 2026-05-01 12:36 | 20.45840 | -157.05220 | 22855 ft | 376 kts | 320° |
| 2026-05-01 12:36 | 20.47703 | -157.07159 | 22856 ft | 375 kts | 320° |
| 2026-05-01 12:36 | 20.49573 | -157.09106 | 22855 ft | 373 kts | 320° |
| 2026-05-01 12:37 | 20.51397 | -157.11009 | 22444 ft | 362 kts | 320° |
| 2026-05-01 12:37 | 20.53176 | -157.12862 | 21512 ft | 365 kts | 320° |
| 2026-05-01 12:37 | 20.54991 | -157.14752 | 20649 ft | 363 kts | 319° |
| 2026-05-01 12:37 | 20.56764 | -157.16602 | 20200 ft | 351 kts | 319° |
| 2026-05-01 12:38 | 20.58505 | -157.18417 | 19813 ft | 360 kts | 319° |
| 2026-05-01 12:38 | 20.60334 | -157.20322 | 19351 ft | 366 kts | 319° |
| 2026-05-01 12:38 | 20.62128 | -157.22194 | 18889 ft | 363 kts | 319° |
| 2026-05-01 12:38 | 20.63949 | -157.24094 | 18427 ft | 361 kts | 319° |
| 2026-05-01 12:39 | 20.65729 | -157.25952 | 17971 ft | 359 kts | 318° |
| 2026-05-01 12:39 | 20.67502 | -157.27805 | 17514 ft | 358 kts | 318° |
| 2026-05-01 12:39 | 20.69282 | -157.29665 | 17054 ft | 356 kts | 318° |
| 2026-05-01 12:39 | 20.71045 | -157.31506 | 16599 ft | 354 kts | 318° |
| 2026-05-01 12:40 | 20.72795 | -157.33336 | 16142 ft | 352 kts | 318° |
| 2026-05-01 12:40 | 20.74549 | -157.35172 | 15686 ft | 351 kts | 318° |
| 2026-05-01 12:40 | 20.76289 | -157.36992 | 15234 ft | 349 kts | 318° |
| 2026-05-01 12:40 | 20.78003 | -157.38785 | 14784 ft | 347 kts | 317° |
| 2026-05-01 12:41 | 20.79719 | -157.40582 | 14333 ft | 345 kts | 317° |
| 2026-05-01 12:41 | 20.81444 | -157.42387 | 13820 ft | 344 kts | 317° |
| 2026-05-01 12:41 | 20.83142 | -157.44167 | 13361 ft | 341 kts | 317° |
| 2026-05-01 12:41 | 20.84848 | -157.45955 | 12909 ft | 344 kts | 317° |
| 2026-05-01 12:42 | 20.86554 | -157.47742 | 12424 ft | 343 kts | 317° |
| 2026-05-01 12:42 | 20.88254 | -157.49524 | 11963 ft | 342 kts | 317° |
| 2026-05-01 12:42 | 20.89935 | -157.51288 | 11510 ft | 341 kts | 317° |
| 2026-05-01 12:42 | 20.91628 | -157.53064 | 11056 ft | 340 kts | 317° |
| 2026-05-01 12:43 | 20.93315 | -157.54835 | 10606 ft | 338 kts | 317° |
| 2026-05-01 12:43 | 20.94978 | -157.56610 | 10325 ft | 331 kts | 313° |
| 2026-05-01 12:43 | 20.96165 | -157.58637 | 10233 ft | 320 kts | 296° |
| 2026-05-01 12:43 | 20.96982 | -157.60826 | 10140 ft | 308 kts | 292° |
| 2026-05-01 12:44 | 20.97684 | -157.62953 | 10028 ft | 298 kts | 291° |
| 2026-05-01 12:44 | 20.98352 | -157.65034 | 9722 ft | 296 kts | 291° |
| 2026-05-01 12:44 | 20.99685 | -157.69214 | 8925 ft | 298 kts | 291° |
| 2026-05-01 12:45 | 21.01019 | -157.73402 | 8193 ft | 298 kts | 291° |
| 2026-05-01 12:45 | 21.01686 | -157.75497 | 7834 ft | 298 kts | 290° |
| 2026-05-01 12:45 | 21.02354 | -157.77596 | 7474 ft | 298 kts | 290° |
| 2026-05-01 12:46 | 21.03013 | -157.79669 | 7121 ft | 297 kts | 291° |
| 2026-05-01 12:46 | 21.03681 | -157.81770 | 6765 ft | 298 kts | 291° |
| 2026-05-01 12:46 | 21.04351 | -157.83881 | 6402 ft | 298 kts | 291° |
| 2026-05-01 12:46 | 21.05012 | -157.85962 | 6047 ft | 298 kts | 291° |
| 2026-05-01 12:47 | 21.05676 | -157.88055 | 5693 ft | 298 kts | 291° |
| 2026-05-01 12:47 | 21.06347 | -157.90169 | 5341 ft | 298 kts | 291° |
| 2026-05-01 12:47 | 21.07008 | -157.92256 | 5097 ft | 294 kts | 291° |
| 2026-05-01 12:47 | 21.07860 | -157.94238 | 4673 ft | 292 kts | 307° |
| 2026-05-01 12:48 | 21.09061 | -157.95966 | 4301 ft | 291 kts | 312° |
| 2026-05-01 12:48 | 21.10333 | -157.97661 | 3950 ft | 291 kts | 313° |
| 2026-05-01 12:48 | 21.11601 | -157.99344 | 3611 ft | 291 kts | 313° |
| 2026-05-01 12:48 | 21.12866 | -158.01028 | 3206 ft | 288 kts | 313° |
| 2026-05-01 12:49 | 21.14164 | -158.02623 | 2972 ft | 279 kts | 323° |
| 2026-05-01 12:49 | 21.15648 | -158.03914 | 2853 ft | 268 kts | 328° |
| 2026-05-01 12:49 | 21.17108 | -158.05087 | 2713 ft | 260 kts | 328° |
| 2026-05-01 12:49 | 21.18602 | -158.06100 | 2572 ft | 247 kts | 346° |
| 2026-05-01 12:50 | 21.20212 | -158.06325 | 2453 ft | 224 kts | 13° |
| 2026-05-01 12:50 | 21.21616 | -158.05797 | 2350 ft | 204 kts | 37° |
| 2026-05-01 12:50 | 21.22656 | -158.04868 | 2272 ft | 190 kts | 48° |
| 2026-05-01 12:50 | 21.23572 | -158.03894 | 2196 ft | 176 kts | 50° |
| 2026-05-01 12:51 | 21.24331 | -158.02934 | 2115 ft | 162 kts | 54° |
| 2026-05-01 12:51 | 21.24998 | -158.02005 | 2041 ft | 151 kts | 55° |
| 2026-05-01 12:51 | 21.26279 | -158.00192 | 1775 ft | 148 kts | 55° |
| 2026-05-01 12:52 | 21.26883 | -157.99339 | 1574 ft | 137 kts | 55° |
| 2026-05-01 12:52 | 21.28003 | -157.97751 | 1234 ft | 136 kts | 55° |
| 2026-05-01 12:52 | 21.28569 | -157.96953 | 1066 ft | 136 kts | 55° |
| 2026-05-01 12:53 | 21.29725 | -157.95317 | 712 ft | 137 kts | 54° |
| 2026-05-01 12:53 | 21.30297 | -157.94505 | 534 ft | 139 kts | 54° |
| 2026-05-01 12:53 | 21.30888 | -157.93671 | 362 ft | 140 kts | 54° |
| 2026-05-01 12:54 | 21.31481 | -157.92839 | 182 ft | 139 kts | 55° |
| 2026-05-01 12:54 | 21.32498 | -157.91389 | 34 ft | 49 kts | 53° |
| 2026-05-01 12:54 | 21.32561 | -157.91332 | 34 ft | 9 kts | 11° |
| 2026-05-01 12:55 | 21.32677 | -157.91307 | 36 ft | 8 kts | 9° |
| 2026-05-01 12:55 | 21.32763 | -157.91295 | 37 ft | 8 kts | 6° |
| 2026-05-01 12:55 | 21.32819 | -157.91284 | 38 ft | 7 kts | 21° |
| 2026-05-01 12:56 | 21.32855 | -157.91257 | 38 ft | 3 kts | 35° |
| 2026-05-01 12:56 | 21.32878 | -157.91257 | 39 ft | 4 kts | 350° |
| 2026-05-01 12:56 | 21.32916 | -157.91280 | 39 ft | 5 kts | 323° |
| 2026-05-01 12:56 | 21.32935 | -157.91295 | 40 ft | 0 kts | 323° |